Time;durP1;ratioP1;P1;durP2;ratioP2;P2;SDS_P1;SDS_P2;PMS_P1;PMS_P2;Temp;Humidity;BMP_temperature;BMP_pressure;BME280_temperature;BME280_humidity;BME280_pressure;Samples;Min_cycle;Max_cycle;Signal;HPM_P1;HPM_P2
2021/11/20 00:01:18;;;;;;;48.45;19.38;;;;;;;;;;5035124;28;20021;-89
2021/11/20 00:03:45;;;;;;;40.35;18.90;;;;;;;;;;5035146;28;20021;-90
2021/11/20 00:06:16;;;;;;;46.90;18.92;;;;;;;;;;5034907;28;20025;-90
2021/11/20 00:08:41;;;;;;;44.78;20.15;;;;;;;;;;5034944;28;20045;-90
2021/11/20 00:11:07;;;;;;;41.65;17.27;;;;;;;;;;5026756;28;20436;-89
2021/11/20 00:13:32;;;;;;;46.42;19.65;;;;;;;;;;5034981;28;20032;-89
2021/11/20 00:16:00;;;;;;;39.78;18.05;;;;;;;;;;5036087;28;20424;-90
2021/11/20 00:18:26;;;;;;;43.88;18.38;;;;;;;;;;5034765;28;20021;-90
2021/11/20 00:20:55;;;;;;;43.92;18.45;;;;;;;;;;5034906;28;20021;-89
2021/11/20 00:23:26;;;;;;;38.17;16.63;;;;;;;;;;5033654;28;20022;-89
2021/11/20 00:25:54;;;;;;;41.67;19.30;;;;;;;;;;5034768;28;20067;-89
2021/11/20 00:28:21;;;;;;;45.30;18.05;;;;;;;;;;5034639;28;20120;-89
2021/11/20 00:30:58;;;;;;;40.63;17.73;;;;;;;;;;5039135;28;20096;-89
2021/11/20 00:33:29;;;;;;;37.33;16.50;;;;;;;;;;5034765;28;20418;-89
2021/11/20 00:35:55;;;;;;;42.47;18.17;;;;;;;;;;5034497;28;20048;-89
2021/11/20 00:38:21;;;;;;;42.97;18.88;;;;;;;;;;5034516;28;20021;-89
2021/11/20 00:40:48;;;;;;;38.10;17.42;;;;;;;;;;5035525;28;20461;-89
2021/11/20 00:43:14;;;;;;;41.53;17.88;;;;;;;;;;5034514;28;20018;-89
2021/11/20 00:45:40;;;;;;;39.20;17.75;;;;;;;;;;5034296;28;20045;-90
2021/11/20 00:48:06;;;;;;;37.75;16.25;;;;;;;;;;5034442;28;20018;-90
2021/11/20 00:50:32;;;;;;;38.20;16.23;;;;;;;;;;5034313;28;20029;-89
2021/11/20 00:52:58;;;;;;;39.00;17.10;;;;;;;;;;5033957;28;20021;-90
2021/11/20 00:55:25;;;;;;;35.67;16.75;;;;;;;;;;5056299;28;20156;-90
2021/11/20 00:57:51;;;;;;;33.38;16.30;;;;;;;;;;5032654;28;20024;-89
2021/11/20 01:00:17;;;;;;;38.25;15.93;;;;;;;;;;5034415;28;20017;-89
2021/11/20 01:02:42;;;;;;;37.58;16.40;;;;;;;;;;5032654;28;20025;-91
2021/11/20 01:05:09;;;;;;;39.10;17.58;;;;;;;;;;5021526;28;20076;-89
2021/11/20 01:07:35;;;;;;;40.53;17.15;;;;;;;;;;5033935;28;20064;-90
2021/11/20 01:10:00;;;;;;;40.17;16.80;;;;;;;;;;5035026;28;20373;-90
2021/11/20 01:12:27;;;;;;;39.97;17.77;;;;;;;;;;5033900;28;20027;-89
2021/11/20 01:14:53;;;;;;;41.50;17.33;;;;;;;;;;5033760;28;20443;-89
2021/11/20 01:17:19;;;;;;;38.72;16.65;;;;;;;;;;5033752;28;20018;-90
2021/11/20 01:19:45;;;;;;;38.05;17.40;;;;;;;;;;5033673;28;20032;-89
2021/11/20 01:22:12;;;;;;;38.33;17.52;;;;;;;;;;5033790;28;20017;-90
2021/11/20 01:24:37;;;;;;;44.67;17.27;;;;;;;;;;5033678;28;20032;-90
2021/11/20 01:27:02;;;;;;;32.50;15.80;;;;;;;;;;5033335;28;20017;-89
2021/11/20 01:29:27;;;;;;;38.70;16.75;;;;;;;;;;5066658;28;20033;-89
2021/11/20 01:31:54;;;;;;;42.10;16.88;;;;;;;;;;5033363;28;20487;-89
2021/11/20 01:34:22;;;;;;;36.22;15.50;;;;;;;;;;5033005;28;20025;-89
2021/11/20 01:36:48;;;;;;;39.60;16.48;;;;;;;;;;5033262;28;20013;-89
2021/11/20 01:39:15;;;;;;;40.28;17.02;;;;;;;;;;5033263;28;20100;-89
2021/11/20 01:41:41;;;;;;;34.30;16.20;;;;;;;;;;5033378;28;20045;-90
2021/11/20 01:44:12;;;;;;;35.03;15.77;;;;;;;;;;5033392;28;20025;-89
2021/11/20 01:46:40;;;;;;;37.92;15.98;;;;;;;;;;5085060;28;20111;-90
2021/11/20 01:49:09;;;;;;;38.42;16.52;;;;;;;;;;5049565;28;20108;-89
2021/11/20 01:51:55;;;;;;;38.10;15.07;;;;;;;;;;5048183;28;20109;-89
2021/11/20 01:54:20;;;;;;;39.10;15.85;;;;;;;;;;5039586;28;20039;-89
2021/11/20 01:56:46;;;;;;;38.22;16.50;;;;;;;;;;5040564;28;20469;-90
2021/11/20 01:59:11;;;;;;;38.97;16.17;;;;;;;;;;5051211;28;20009;-89
2021/11/20 02:01:48;;;;;;;44.38;17.05;;;;;;;;;;5052744;28;20017;-89
2021/11/20 02:04:22;;;;;;;40.85;16.65;;;;;;;;;;5036503;28;20025;-89
2021/11/20 02:06:53;;;;;;;45.65;17.75;;;;;;;;;;5032901;28;20072;-90
2021/11/20 02:09:18;;;;;;;42.05;17.95;;;;;;;;;;5050092;28;20379;-89
2021/11/20 02:11:57;;;;;;;41.22;17.55;;;;;;;;;;5054067;28;20033;-89
2021/11/20 02:14:23;;;;;;;43.67;17.27;;;;;;;;;;5050829;28;20013;-90
2021/11/20 02:16:51;;;;;;;42.85;18.17;;;;;;;;;;5032270;28;20013;-90
2021/11/20 02:19:20;;;;;;;43.58;17.70;;;;;;;;;;5050970;28;20017;-89
2021/11/20 02:21:54;;;;;;;42.30;17.63;;;;;;;;;;5032734;28;20016;-89
2021/11/20 02:24:19;;;;;;;44.22;17.70;;;;;;;;;;5032458;28;20048;-90
2021/11/20 02:26:44;;;;;;;44.63;18.00;;;;;;;;;;5039191;28;20017;-89
2021/11/20 02:29:11;;;;;;;42.92;18.25;;;;;;;;;;5040148;28;20548;-89
2021/11/20 02:31:38;;;;;;;48.13;18.13;;;;;;;;;;5042155;28;20017;-89
2021/11/20 02:34:03;;;;;;;43.75;18.52;;;;;;;;;;5041696;28;20481;-90
2021/11/20 02:36:28;;;;;;;41.67;17.83;;;;;;;;;;5046443;28;20112;-89
2021/11/20 02:38:59;;;;;;;44.55;18.20;;;;;;;;;;5032980;28;20139;-90
2021/11/20 02:41:26;;;;;;;45.28;18.45;;;;;;;;;;5065018;28;20021;-89
2021/11/20 02:43:52;;;;;;;47.05;18.10;;;;;;;;;;5039698;28;20017;-89
2021/11/20 02:46:19;;;;;;;45.97;19.15;;;;;;;;;;5040355;28;20074;-89
2021/11/20 02:48:44;;;;;;;43.50;18.60;;;;;;;;;;5056017;28;20020;-89
2021/11/20 02:51:11;;;;;;;48.33;19.23;;;;;;;;;;5044988;28;20404;-89
2021/11/20 02:53:38;;;;;;;55.20;21.17;;;;;;;;;;5050262;28;20025;-90
2021/11/20 02:56:06;;;;;;;46.70;19.55;;;;;;;;;;5036424;28;20029;-89
2021/11/20 02:58:31;;;;;;;48.58;19.15;;;;;;;;;;5051523;28;20021;-90
2021/11/20 03:00:59;;;;;;;46.78;20.23;;;;;;;;;;5056667;28;20495;-90
2021/11/20 03:03:24;;;;;;;47.95;19.58;;;;;;;;;;5043007;28;20136;-89
2021/11/20 03:05:49;;;;;;;49.97;19.33;;;;;;;;;;5055447;28;20029;-89
2021/11/20 03:08:15;;;;;;;45.80;19.20;;;;;;;;;;5056332;28;20075;-89
2021/11/20 03:10:42;;;;;;;48.95;19.63;;;;;;;;;;5054426;28;20060;-89
2021/11/20 03:13:07;;;;;;;47.97;19.65;;;;;;;;;;5056208;28;20423;-89
2021/11/20 03:15:32;;;;;;;52.78;21.35;;;;;;;;;;5054898;28;20070;-90
2021/11/20 03:17:57;;;;;;;49.47;19.52;;;;;;;;;;5043018;28;20405;-89
2021/11/20 03:20:23;;;;;;;48.17;19.63;;;;;;;;;;5049119;28;20147;-90
2021/11/20 03:22:51;;;;;;;47.08;20.55;;;;;;;;;;5036879;28;20009;-90
2021/11/20 03:25:17;;;;;;;50.42;20.17;;;;;;;;;;5047251;28;20017;-90
2021/11/20 03:27:42;;;;;;;49.53;20.40;;;;;;;;;;5055778;28;20039;-89
2021/11/20 03:30:08;;;;;;;49.70;20.13;;;;;;;;;;5055769;28;20040;-90
2021/11/20 03:32:33;;;;;;;49.33;20.10;;;;;;;;;;5054379;28;20025;-89
2021/11/20 03:34:58;;;;;;;45.72;19.98;;;;;;;;;;5035566;28;20057;-89
2021/11/20 03:37:23;;;;;;;49.00;19.92;;;;;;;;;;5036793;28;20068;-90
2021/11/20 03:39:50;;;;;;;48.03;19.63;;;;;;;;;;5040584;28;20013;-90
2021/11/20 03:42:15;;;;;;;49.75;20.02;;;;;;;;;;5055575;28;20476;-89
2021/11/20 03:44:41;;;;;;;53.28;19.83;;;;;;;;;;5052358;28;20028;-89
2021/11/20 03:47:06;;;;;;;49.30;20.27;;;;;;;;;;5036977;28;20029;-89
2021/11/20 03:49:31;;;;;;;42.05;19.38;;;;;;;;;;5083468;28;20075;-90
2021/11/20 03:51:56;;;;;;;45.13;19.48;;;;;;;;;;5052414;28;20091;-90
2021/11/20 03:54:22;;;;;;;50.53;20.45;;;;;;;;;;5035231;28;20047;-89
2021/11/20 03:56:47;;;;;;;48.65;20.40;;;;;;;;;;5049051;28;20021;-89
2021/11/20 03:59:12;;;;;;;52.38;20.08;;;;;;;;;;5034344;28;20010;-90
2021/11/20 04:01:37;;;;;;;42.85;18.50;;;;;;;;;;5048126;28;20088;-90
2021/11/20 04:04:03;;;;;;;41.83;18.60;;;;;;;;;;5055027;28;20029;-90
2021/11/20 04:06:29;;;;;;;50.20;20.85;;;;;;;;;;5056256;28;20040;-90
2021/11/20 04:08:54;;;;;;;47.95;20.33;;;;;;;;;;5051110;28;20029;-90
2021/11/20 04:11:22;;;;;;;47.15;19.17;;;;;;;;;;5055012;28;20017;-90
2021/11/20 04:13:47;;;;;;;48.78;19.50;;;;;;;;;;5041304;28;20040;-89
2021/11/20 04:16:13;;;;;;;46.40;18.83;;;;;;;;;;5034900;28;20532;-90
2021/11/20 04:18:41;;;;;;;52.25;21.20;;;;;;;;;;5034952;28;20026;-89
2021/11/20 04:21:07;;;;;;;55.63;20.33;;;;;;;;;;5053806;28;20029;-89
2021/11/20 04:23:32;;;;;;;54.55;21.13;;;;;;;;;;5043726;28;20078;-89
2021/11/20 04:25:58;;;;;;;49.28;19.92;;;;;;;;;;5037643;28;20440;-89
2021/11/20 04:28:23;;;;;;;50.13;19.73;;;;;;;;;;5054702;28;20029;-89
2021/11/20 04:30:48;;;;;;;52.30;20.40;;;;;;;;;;5053838;28;20033;-89
2021/11/20 04:33:14;;;;;;;47.92;20.48;;;;;;;;;;5041262;28;20017;-90
2021/11/20 04:35:39;;;;;;;45.40;19.38;;;;;;;;;;5054598;28;20045;-89
2021/11/20 04:38:05;;;;;;;48.72;21.52;;;;;;;;;;5049708;28;20548;-90
2021/11/20 04:40:31;;;;;;;50.85;20.95;;;;;;;;;;5045231;28;20021;-89
2021/11/20 04:42:56;;;;;;;48.13;19.73;;;;;;;;;;5040368;28;20741;-89
2021/11/20 04:45:24;;;;;;;52.88;21.33;;;;;;;;;;5054247;28;20021;-89
2021/11/20 04:47:49;;;;;;;47.70;20.52;;;;;;;;;;5055427;28;20078;-89
2021/11/20 04:50:15;;;;;;;45.42;19.63;;;;;;;;;;5054334;28;20484;-89
2021/11/20 04:52:41;;;;;;;47.38;19.67;;;;;;;;;;5041384;28;20025;-89
2021/11/20 04:55:07;;;;;;;52.17;19.73;;;;;;;;;;5049032;28;20036;-89
2021/11/20 04:57:33;;;;;;;47.67;20.45;;;;;;;;;;5047142;28;20024;-90
2021/11/20 04:59:58;;;;;;;41.10;18.33;;;;;;;;;;5047162;28;20025;-90
2021/11/20 05:02:23;;;;;;;41.38;19.17;;;;;;;;;;5053858;28;20456;-90
2021/11/20 05:04:48;;;;;;;45.17;19.50;;;;;;;;;;5051083;28;20025;-90
2021/11/20 05:07:15;;;;;;;45.22;18.80;;;;;;;;;;5050904;28;20091;-89
2021/11/20 05:09:40;;;;;;;49.45;19.60;;;;;;;;;;5042333;28;20070;-90
2021/11/20 05:12:07;;;;;;;44.20;19.90;;;;;;;;;;5038908;28;20420;-89
2021/11/20 05:14:33;;;;;;;48.30;20.38;;;;;;;;;;5033877;28;20017;-89
2021/11/20 05:16:58;;;;;;;46.78;18.90;;;;;;;;;;5035220;28;20067;-90
2021/11/20 05:19:24;;;;;;;43.25;19.08;;;;;;;;;;5038550;28;20017;-90
2021/11/20 05:21:49;;;;;;;44.55;19.38;;;;;;;;;;5042930;28;20045;-89
2021/11/20 05:24:14;;;;;;;44.15;19.83;;;;;;;;;;5050364;28;20033;-90
2021/11/20 05:26:39;;;;;;;43.60;18.65;;;;;;;;;;5053538;28;20496;-89
2021/11/20 05:29:06;;;;;;;41.00;18.17;;;;;;;;;;5039419;28;20362;-89
2021/11/20 05:31:35;;;;;;;37.53;16.38;;;;;;;;;;5053383;28;20074;-90
2021/11/20 05:34:01;;;;;;;39.45;18.27;;;;;;;;;;5046104;28;20032;-89
2021/11/20 05:36:30;;;;;;;44.00;19.13;;;;;;;;;;5086106;28;20099;-89
2021/11/20 05:38:58;;;;;;;44.92;17.83;;;;;;;;;;5053285;28;20009;-90
2021/11/20 05:41:23;;;;;;;41.80;18.55;;;;;;;;;;5053041;28;20100;-89
2021/11/20 05:43:48;;;;;;;42.22;18.30;;;;;;;;;;5053195;28;20059;-89
2021/11/20 05:46:14;;;;;;;43.63;18.73;;;;;;;;;;5037307;28;20029;-89
2021/11/20 05:48:40;;;;;;;44.22;18.20;;;;;;;;;;5033188;28;20013;-89
2021/11/20 05:51:06;;;;;;;42.88;18.85;;;;;;;;;;5046958;28;20116;-89
2021/11/20 05:53:31;;;;;;;40.90;17.65;;;;;;;;;;5034932;28;20021;-89
2021/11/20 05:55:57;;;;;;;37.95;17.38;;;;;;;;;;5052966;28;20024;-89
2021/11/20 05:58:23;;;;;;;36.25;17.15;;;;;;;;;;5050212;28;20032;-89
2021/11/20 06:00:50;;;;;;;42.10;18.33;;;;;;;;;;5065969;28;20381;-89
2021/11/20 06:03:16;;;;;;;39.42;17.42;;;;;;;;;;5040327;28;20024;-90
2021/11/20 06:05:42;;;;;;;39.92;17.65;;;;;;;;;;5046756;28;20469;-89
2021/11/20 06:08:08;;;;;;;38.65;17.70;;;;;;;;;;5033084;28;20494;-89
2021/11/20 06:10:34;;;;;;;39.95;17.23;;;;;;;;;;5048863;28;20104;-89
2021/11/20 06:13:00;;;;;;;42.22;18.65;;;;;;;;;;5052792;28;20457;-89
2021/11/20 06:15:25;;;;;;;45.78;17.52;;;;;;;;;;5052521;28;20024;-90
2021/11/20 06:17:51;;;;;;;42.53;17.00;;;;;;;;;;5053950;28;20024;-90
2021/11/20 06:20:16;;;;;;;39.35;16.55;;;;;;;;;;5053546;28;20025;-90
2021/11/20 06:22:42;;;;;;;35.72;14.85;;;;;;;;;;5034154;28;20014;-89
2021/11/20 06:25:08;;;;;;;35.90;16.63;;;;;;;;;;5042773;28;20021;-89
2021/11/20 06:27:34;;;;;;;39.05;17.45;;;;;;;;;;5038536;28;20060;-89
2021/11/20 06:30:00;;;;;;;40.78;17.10;;;;;;;;;;5044749;28;20029;-90
2021/11/20 06:32:26;;;;;;;38.38;16.73;;;;;;;;;;5045708;28;20028;-89
2021/11/20 06:34:51;;;;;;;39.78;16.67;;;;;;;;;;5052596;28;20017;-90
2021/11/20 06:37:16;;;;;;;34.53;15.73;;;;;;;;;;5040655;28;20032;-89
2021/11/20 06:39:42;;;;;;;35.63;15.65;;;;;;;;;;5032444;28;20014;-89
2021/11/20 06:42:07;;;;;;;37.33;16.25;;;;;;;;;;5032701;28;20032;-90
2021/11/20 06:44:33;;;;;;;43.58;17.42;;;;;;;;;;5046431;28;20021;-90
2021/11/20 06:46:59;;;;;;;50.53;20.15;;;;;;;;;;5040461;28;20031;-90
2021/11/20 06:49:24;;;;;;;48.83;20.85;;;;;;;;;;5052512;28;20021;-89
2021/11/20 06:51:50;;;;;;;43.67;19.83;;;;;;;;;;5050304;28;20052;-89
2021/11/20 06:54:15;;;;;;;40.58;17.77;;;;;;;;;;5040000;28;20078;-90
2021/11/20 06:56:47;;;;;;;43.50;19.45;;;;;;;;;;5038422;28;20024;-89
2021/11/20 07:00:26;;;;;;;34.58;14.75;;;;;;;;;;5026014;28;20021;-90
2021/11/20 07:01:58;;;;;;;29.13;14.25;;;;;;;;;;5037399;28;20253;-89
2021/11/20 07:04:26;;;;;;;35.50;15.23;;;;;;;;;;5039720;28;20055;-89
2021/11/20 07:07:04;;;;;;;34.33;16.02;;;;;;;;;;5038608;28;20029;-90
2021/11/20 07:09:29;;;;;;;43.45;16.60;;;;;;;;;;5019878;28;20032;-89
2021/11/20 07:11:55;;;;;;;37.17;15.77;;;;;;;;;;5032398;28;20041;-90
2021/11/20 07:14:20;;;;;;;31.90;14.15;;;;;;;;;;5051319;28;20021;-90
2021/11/20 07:16:46;;;;;;;32.90;13.82;;;;;;;;;;5052462;28;20021;-89
2021/11/20 07:19:13;;;;;;;33.78;15.25;;;;;;;;;;5036074;28;20041;-90
2021/11/20 07:21:38;;;;;;;35.30;15.75;;;;;;;;;;5041486;28;20066;-90
2021/11/20 07:24:08;;;;;;;31.88;14.52;;;;;;;;;;5048912;28;20031;-89
2021/11/20 07:26:33;;;;;;;34.72;13.75;;;;;;;;;;5040028;28;20079;-89
2021/11/20 07:28:59;;;;;;;31.25;13.48;;;;;;;;;;5052080;28;20442;-89
2021/11/20 07:31:24;;;;;;;31.38;14.57;;;;;;;;;;5037868;28;20025;-90
2021/11/20 07:33:49;;;;;;;31.33;14.82;;;;;;;;;;5044776;28;20025;-90
2021/11/20 07:36:15;;;;;;;29.27;13.10;;;;;;;;;;5053541;28;20017;-89
2021/11/20 07:38:42;;;;;;;30.08;13.18;;;;;;;;;;5051565;28;20029;-90
2021/11/20 07:41:07;;;;;;;26.00;12.50;;;;;;;;;;5049545;28;20533;-89
2021/11/20 07:43:33;;;;;;;27.65;12.82;;;;;;;;;;5035504;28;20057;-89
2021/11/20 07:45:59;;;;;;;29.52;12.93;;;;;;;;;;5038162;28;20026;-89
2021/11/20 07:48:25;;;;;;;31.13;13.35;;;;;;;;;;5039766;28;20118;-89
2021/11/20 07:50:52;;;;;;;25.58;11.90;;;;;;;;;;5035096;28;20028;-89
2021/11/20 07:53:17;;;;;;;25.83;12.10;;;;;;;;;;5053280;28;20024;-89
2021/11/20 07:55:43;;;;;;;28.48;12.80;;;;;;;;;;5049234;28;20109;-89
2021/11/20 07:58:09;;;;;;;25.23;11.88;;;;;;;;;;5035185;28;20021;-89
2021/11/20 08:00:36;;;;;;;26.20;12.48;;;;;;;;;;5039012;28;20028;-89
2021/11/20 08:03:02;;;;;;;26.10;11.68;;;;;;;;;;5048385;28;20034;-89
2021/11/20 08:05:28;;;;;;;26.45;12.40;;;;;;;;;;5050772;28;20025;-89
2021/11/20 08:07:54;;;;;;;24.90;11.55;;;;;;;;;;5055030;28;20468;-89
2021/11/20 08:10:20;;;;;;;23.38;11.00;;;;;;;;;;5046403;28;20068;-88
2021/11/20 08:12:46;;;;;;;24.42;12.77;;;;;;;;;;5034920;28;20021;-89
2021/11/20 08:15:11;;;;;;;25.80;11.93;;;;;;;;;;5046647;28;20028;-89
2021/11/20 08:17:36;;;;;;;23.50;12.23;;;;;;;;;;5054685;28;20024;-89
2021/11/20 08:20:03;;;;;;;29.20;12.85;;;;;;;;;;5048547;28;20166;-89
2021/11/20 08:22:28;;;;;;;25.67;12.02;;;;;;;;;;5050726;28;20036;-88
2021/11/20 08:24:53;;;;;;;25.58;12.48;;;;;;;;;;5054414;28;20452;-88
2021/11/20 08:27:19;;;;;;;22.15;9.93;;;;;;;;;;5054389;28;20028;-88
2021/11/20 08:29:44;;;;;;;21.75;10.98;;;;;;;;;;5087826;28;20025;-88
2021/11/20 08:32:10;;;;;;;25.30;11.05;;;;;;;;;;5048938;28;20021;-88
2021/11/20 08:34:36;;;;;;;26.85;12.80;;;;;;;;;;5040907;28;20025;-88
2021/11/20 08:37:02;;;;;;;27.50;12.65;;;;;;;;;;5034229;28;20440;-88
2021/11/20 08:39:29;;;;;;;28.48;12.57;;;;;;;;;;5048084;28;20033;-88
2021/11/20 08:41:55;;;;;;;26.00;11.82;;;;;;;;;;5037642;28;20025;-88
2021/11/20 08:44:20;;;;;;;24.70;11.57;;;;;;;;;;5038719;28;20519;-88
2021/11/20 08:46:46;;;;;;;27.50;12.13;;;;;;;;;;5039023;28;20099;-88
2021/11/20 08:49:12;;;;;;;26.05;11.63;;;;;;;;;;5034314;28;20026;-88
2021/11/20 08:51:38;;;;;;;25.77;12.15;;;;;;;;;;5037459;28;20479;-88
2021/11/20 08:54:04;;;;;;;23.15;10.60;;;;;;;;;;5037625;28;20017;-88
2021/11/20 08:56:29;;;;;;;21.98;10.23;;;;;;;;;;5028973;28;20033;-88
2021/11/20 08:58:54;;;;;;;25.35;11.15;;;;;;;;;;5039587;28;20036;-88
2021/11/20 09:01:23;;;;;;;22.80;10.50;;;;;;;;;;5051963;28;20025;-88
2021/11/20 09:03:48;;;;;;;23.90;11.40;;;;;;;;;;5048586;28;20389;-87
2021/11/20 09:06:16;;;;;;;23.73;11.25;;;;;;;;;;5046462;28;20030;-88
2021/11/20 09:08:56;;;;;;;27.42;10.98;;;;;;;;;;5042423;28;20481;-88
2021/11/20 09:11:26;;;;;;;23.90;11.27;;;;;;;;;;5033923;28;20032;-88
2021/11/20 09:14:12;;;;;;;23.63;11.63;;;;;;;;;;5034855;28;20512;-88
2021/11/20 09:16:38;;;;;;;27.25;12.65;;;;;;;;;;5023095;28;20040;-88
2021/11/20 09:19:05;;;;;;;22.80;11.02;;;;;;;;;;5053267;28;20033;-88
2021/11/20 09:21:31;;;;;;;26.50;11.90;;;;;;;;;;5045125;28;20021;-88
2021/11/20 09:23:57;;;;;;;24.45;11.40;;;;;;;;;;5047481;28;20469;-88
2021/11/20 09:26:22;;;;;;;24.00;11.05;;;;;;;;;;5045070;28;20462;-88
2021/11/20 09:28:48;;;;;;;25.63;11.60;;;;;;;;;;5040909;28;20052;-88
2021/11/20 09:31:13;;;;;;;24.25;11.10;;;;;;;;;;5051380;28;20369;-88
2021/11/20 09:33:39;;;;;;;20.73;10.20;;;;;;;;;;5053071;28;20365;-88
2021/11/20 09:36:05;;;;;;;22.75;10.38;;;;;;;;;;5052793;28;20017;-88
2021/11/20 09:38:30;;;;;;;22.25;9.95;;;;;;;;;;5052986;28;20380;-88
2021/11/20 09:41:11;;;;;;;21.30;10.32;;;;;;;;;;5086386;28;20025;-88
2021/11/20 09:43:39;;;;;;;23.83;11.23;;;;;;;;;;5052949;28;20027;-88
2021/11/20 09:46:10;;;;;;;28.13;10.38;;;;;;;;;;5038195;28;20029;-88
2021/11/20 09:48:38;;;;;;;22.63;10.48;;;;;;;;;;5033074;28;20075;-88
2021/11/20 09:51:12;;;;;;;20.50;10.18;;;;;;;;;;5046477;28;20021;-88
2021/11/20 09:53:38;;;;;;;21.20;10.05;;;;;;;;;;5049814;28;20026;-88
2021/11/20 09:56:08;;;;;;;19.38;9.63;;;;;;;;;;5035278;28;20370;-88
2021/11/20 09:58:35;;;;;;;20.30;9.45;;;;;;;;;;5046714;28;20025;-88
2021/11/20 10:01:19;;;;;;;19.42;10.18;;;;;;;;;;5032942;28;20048;-88
2021/11/20 10:03:44;;;;;;;21.23;10.20;;;;;;;;;;5061426;28;20396;-88
2021/11/20 10:06:26;;;;;;;20.60;9.98;;;;;;;;;;5052468;28;20112;-88
2021/11/20 10:09:03;;;;;;;21.65;9.25;;;;;;;;;;5084077;28;20052;-88
2021/11/20 10:11:51;;;;;;;22.85;9.63;;;;;;;;;;5042177;28;20083;-88
2021/11/20 10:14:19;;;;;;;21.00;10.02;;;;;;;;;;5009761;28;20032;-88
2021/11/20 10:16:53;;;;;;;27.08;11.57;;;;;;;;;;5052378;28;20100;-88
2021/11/20 10:19:18;;;;;;;20.63;10.63;;;;;;;;;;5052313;28;20064;-88
2021/11/20 10:21:53;;;;;;;21.15;10.18;;;;;;;;;;5042683;28;20458;-88
2021/11/20 10:24:31;;;;;;;21.83;10.05;;;;;;;;;;5049599;28;20032;-88
2021/11/20 10:27:08;;;;;;;21.30;10.38;;;;;;;;;;5052396;28;20049;-88
2021/11/20 10:30:06;;;;;;;19.42;9.80;;;;;;;;;;5052253;28;20369;-88
2021/11/20 10:32:31;;;;;;;21.40;9.77;;;;;;;;;;4983058;28;20038;-88
2021/11/20 10:34:58;;;;;;;20.48;10.77;;;;;;;;;;5052192;28;20028;-88
2021/11/20 10:37:38;;;;;;;23.20;9.95;;;;;;;;;;5052154;28;20424;-88
2021/11/20 10:40:26;;;;;;;24.45;11.70;;;;;;;;;;5059647;28;20107;-88
2021/11/20 10:43:04;;;;;;;20.85;10.73;;;;;;;;;;5041961;28;20366;-88
2021/11/20 10:45:39;;;;;;;20.73;10.68;;;;;;;;;;5053067;28;20469;-88
2021/11/20 10:48:10;;;;;;;18.75;9.70;;;;;;;;;;5035068;28;20104;-88
2021/11/20 10:50:41;;;;;;;20.05;9.93;;;;;;;;;;5032678;28;20030;-88
2021/11/20 10:53:16;;;;;;;21.98;9.73;;;;;;;;;;5036059;28;20033;-88
2021/11/20 10:55:48;;;;;;;23.42;11.20;;;;;;;;;;5046013;28;20436;-89
2021/11/20 10:58:13;;;;;;;24.40;11.57;;;;;;;;;;5032217;28;20424;-88
2021/11/20 11:00:47;;;;;;;23.45;10.45;;;;;;;;;;5049483;28;20020;-88
2021/11/20 11:03:21;;;;;;;20.27;9.90;;;;;;;;;;5051956;28;20021;-88
2021/11/20 11:06:05;;;;;;;21.30;11.00;;;;;;;;;;5037727;28;20040;-88
2021/11/20 11:08:33;;;;;;;21.73;9.98;;;;;;;;;;5041705;28;20393;-88
2021/11/20 11:11:02;;;;;;;23.67;10.82;;;;;;;;;;5049828;28;20466;-88
2021/11/20 11:13:46;;;;;;;21.63;10.50;;;;;;;;;;5047757;28;20028;-88
2021/11/20 11:16:17;;;;;;;21.45;10.32;;;;;;;;;;5028929;28;20021;-88
2021/11/20 11:18:44;;;;;;;19.90;9.57;;;;;;;;;;5055745;28;20599;-88
2021/11/20 11:21:30;;;;;;;20.95;10.15;;;;;;;;;;5083811;28;20014;-88
2021/11/20 11:24:19;;;;;;;19.33;9.73;;;;;;;;;;5049082;28;20029;-88
2021/11/20 11:26:54;;;;;;;19.27;10.13;;;;;;;;;;5079708;28;20120;-88
2021/11/20 11:29:24;;;;;;;18.80;9.38;;;;;;;;;;5038207;28;20029;-88
2021/11/20 11:31:51;;;;;;;17.35;8.77;;;;;;;;;;5081737;28;20027;-88
2021/11/20 11:34:16;;;;;;;19.25;8.57;;;;;;;;;;5053859;28;20100;-87
2021/11/20 11:37:00;;;;;;;18.10;9.52;;;;;;;;;;5042859;28;20044;-88
2021/11/20 11:39:38;;;;;;;16.90;8.77;;;;;;;;;;5041109;28;20053;-88
2021/11/20 11:42:06;;;;;;;21.15;10.07;;;;;;;;;;5055300;28;20020;-88
2021/11/20 11:44:51;;;;;;;19.30;9.48;;;;;;;;;;5039322;28;20025;-88
2021/11/20 11:47:22;;;;;;;19.20;9.32;;;;;;;;;;5045578;28;20021;-88
2021/11/20 11:49:50;;;;;;;21.07;10.63;;;;;;;;;;5055071;28;20516;-88
2021/11/20 11:52:16;;;;;;;19.88;10.52;;;;;;;;;;5054843;28;20021;-88
2021/11/20 11:54:41;;;;;;;20.85;9.80;;;;;;;;;;5054892;28;20039;-88
2021/11/20 11:57:12;;;;;;;20.65;10.40;;;;;;;;;;5051417;28;20117;-88
2021/11/20 11:59:38;;;;;;;21.00;10.07;;;;;;;;;;5045302;28;20028;-88
2021/11/20 12:02:18;;;;;;;28.50;12.02;;;;;;;;;;5042505;28;20017;-88
2021/11/20 12:04:46;;;;;;;25.13;10.85;;;;;;;;;;5054934;28;20029;-88
2021/11/20 12:07:12;;;;;;;27.65;12.65;;;;;;;;;;5052229;28;20057;-88
2021/11/20 12:09:49;;;;;;;29.65;13.45;;;;;;;;;;5042467;28;20032;-88
2021/11/20 12:12:28;;;;;;;26.13;12.55;;;;;;;;;;5052705;28;20044;-88
2021/11/20 12:15:04;;;;;;;33.95;13.43;;;;;;;;;;5044648;28;20464;-88
2021/11/20 12:17:30;;;;;;;31.90;15.10;;;;;;;;;;5040730;28;20087;-88
2021/11/20 12:20:14;;;;;;;31.10;15.30;;;;;;;;;;5052653;28;20021;-88
2021/11/20 12:22:56;;;;;;;39.55;15.15;;;;;;;;;;5042939;28;20020;-89
2021/11/20 12:25:24;;;;;;;35.40;14.10;;;;;;;;;;5042658;28;20104;-88
2021/11/20 12:27:50;;;;;;;34.05;16.02;;;;;;;;;;5052797;28;20108;-88
2021/11/20 12:30:24;;;;;;;37.20;15.63;;;;;;;;;;5054684;28;20433;-88
2021/11/20 12:33:08;;;;;;;34.72;15.90;;;;;;;;;;5036922;28;20544;-88
2021/11/20 12:35:36;;;;;;;30.75;14.38;;;;;;;;;;5047430;28;20107;-88
2021/11/20 12:38:01;;;;;;;29.63;14.20;;;;;;;;;;5049933;28;20022;-88
2021/11/20 12:40:50;;;;;;;32.80;15.88;;;;;;;;;;5034463;28;20109;-88
2021/11/20 12:43:28;;;;;;;30.70;14.95;;;;;;;;;;5048241;28;20108;-88
2021/11/20 12:46:11;;;;;;;29.30;14.77;;;;;;;;;;5035503;28;20021;-88
2021/11/20 12:48:52;;;;;;;34.08;14.80;;;;;;;;;;5029014;28;20107;-88
2021/11/20 12:51:17;;;;;;;31.08;15.25;;;;;;;;;;5047657;28;20033;-88
2021/11/20 12:53:51;;;;;;;27.65;13.38;;;;;;;;;;5050494;28;20100;-88
2021/11/20 12:56:17;;;;;;;29.35;14.90;;;;;;;;;;5043389;28;20017;-88
2021/11/20 12:58:44;;;;;;;27.23;13.40;;;;;;;;;;5050340;28;20368;-88
2021/11/20 13:01:11;;;;;;;27.02;13.68;;;;;;;;;;5053838;28;20028;-88
2021/11/20 13:03:36;;;;;;;27.63;13.40;;;;;;;;;;5053703;28;20017;-88
2021/11/20 13:06:05;;;;;;;32.33;13.90;;;;;;;;;;5051152;28;20024;-88
2021/11/20 13:08:36;;;;;;;28.52;13.38;;;;;;;;;;5053658;28;20109;-88
2021/11/20 13:11:18;;;;;;;27.67;13.38;;;;;;;;;;5025842;28;20071;-88
2021/11/20 13:13:55;;;;;;;32.47;14.10;;;;;;;;;;5047108;28;20017;-88
2021/11/20 13:16:37;;;;;;;29.92;14.52;;;;;;;;;;5041397;28;20017;-88
2021/11/20 13:19:08;;;;;;;26.92;13.10;;;;;;;;;;5053428;28;20028;-88
2021/11/20 13:21:33;;;;;;;30.52;13.88;;;;;;;;;;5053443;28;20104;-88
2021/11/20 13:24:04;;;;;;;25.42;13.32;;;;;;;;;;5053291;28;20051;-88
2021/11/20 13:26:32;;;;;;;25.67;13.30;;;;;;;;;;5053296;28;20028;-88
2021/11/20 13:28:58;;;;;;;25.52;12.30;;;;;;;;;;5052453;28;20025;-88
2021/11/20 13:31:31;;;;;;;22.98;10.27;;;;;;;;;;5049254;28;20097;-88
2021/11/20 13:33:56;;;;;;;25.27;11.93;;;;;;;;;;5045849;28;20029;-88
2021/11/20 13:36:21;;;;;;;22.45;12.13;;;;;;;;;;5039052;28;20098;-88
2021/11/20 13:38:47;;;;;;;26.08;12.00;;;;;;;;;;5042712;28;20477;-88
2021/11/20 13:41:12;;;;;;;25.45;11.98;;;;;;;;;;5049327;28;20439;-88
2021/11/20 13:43:38;;;;;;;23.40;12.88;;;;;;;;;;5044712;28;20017;-88
2021/11/20 13:46:08;;;;;;;26.45;12.25;;;;;;;;;;5048166;28;20016;-88
2021/11/20 13:48:33;;;;;;;26.17;12.38;;;;;;;;;;5052812;28;20143;-88
2021/11/20 13:51:00;;;;;;;28.05;12.75;;;;;;;;;;5052775;28;20063;-88
2021/11/20 13:53:28;;;;;;;31.33;14.38;;;;;;;;;;5052647;28;20017;-88
2021/11/20 13:55:54;;;;;;;26.77;12.75;;;;;;;;;;5052786;28;20020;-88
2021/11/20 13:58:21;;;;;;;25.88;12.60;;;;;;;;;;5054071;28;20013;-88
2021/11/20 14:00:47;;;;;;;29.77;12.77;;;;;;;;;;5051766;28;20021;-88
2021/11/20 14:03:13;;;;;;;23.63;11.77;;;;;;;;;;5052836;28;20023;-88
2021/11/20 14:05:38;;;;;;;26.63;12.82;;;;;;;;;;5052366;28;20532;-88
2021/11/20 14:08:04;;;;;;;24.30;11.48;;;;;;;;;;5043220;28;20507;-88
2021/11/20 14:10:36;;;;;;;23.65;12.18;;;;;;;;;;5048136;28;20429;-88
2021/11/20 14:13:04;;;;;;;23.98;12.32;;;;;;;;;;5052596;28;20052;-88
2021/11/20 14:15:40;;;;;;;27.67;12.45;;;;;;;;;;5052338;28;20113;-88
2021/11/20 14:18:05;;;;;;;23.65;11.55;;;;;;;;;;5044512;28;20017;-88
2021/11/20 14:20:39;;;;;;;21.00;11.20;;;;;;;;;;5046773;28;20490;-88
2021/11/20 14:23:11;;;;;;;19.75;10.57;;;;;;;;;;5051534;28;20539;-88
2021/11/20 14:25:36;;;;;;;;;;;;;;;;;;5032615;28;20032;-87